createdAt,value
2019-03-19T00:00:31.090Z,4.33
2019-03-19T00:01:31.086Z,4.33
2019-03-19T00:02:31.069Z,4.33
2019-03-19T00:03:31.068Z,4.32
2019-03-19T00:04:31.048Z,4.31
2019-03-19T00:05:31.039Z,4.32
2019-03-19T00:06:31.027Z,4.31
2019-03-19T00:07:31.016Z,4.30
2019-03-19T00:08:31.005Z,4.30
2019-03-19T00:09:31.004Z,4.29
2019-03-19T00:10:30.984Z,4.29
2019-03-19T00:11:30.991Z,4.29
2019-03-19T00:12:30.962Z,4.29
2019-03-19T00:13:30.964Z,4.28
2019-03-19T00:14:30.941Z,4.27
2019-03-19T00:15:30.945Z,4.27
2019-03-19T00:16:30.919Z,4.27
2019-03-19T00:17:30.908Z,4.27
2019-03-19T00:18:30.899Z,4.26
2019-03-19T00:19:30.892Z,4.25
2019-03-19T00:20:30.878Z,4.25
2019-03-19T00:21:30.877Z,4.24
2019-03-19T00:22:30.873Z,4.25
2019-03-19T00:23:30.852Z,4.22
2019-03-19T00:24:30.836Z,4.21
2019-03-19T00:25:30.825Z,4.20
2019-03-19T00:26:30.818Z,4.20
2019-03-19T00:27:30.818Z,4.18
2019-03-19T00:28:30.795Z,4.19
2019-03-19T00:29:30.784Z,4.17
2019-03-19T00:30:30.776Z,4.16
2019-03-19T00:31:30.764Z,4.15
2019-03-19T00:32:30.757Z,4.13
2019-03-19T00:33:30.755Z,4.12
2019-03-19T00:34:30.731Z,4.12
2019-03-19T00:35:30.721Z,4.10
2019-03-19T00:36:30.710Z,4.09
2019-03-19T00:37:30.699Z,4.08
2019-03-19T00:38:30.690Z,4.07
2019-03-19T00:39:30.692Z,4.04
2019-03-19T00:40:30.668Z,4.04
2019-03-19T00:41:30.657Z,4.03
2019-03-19T00:42:30.647Z,4.03
2019-03-19T00:43:30.635Z,4.00
2019-03-19T00:44:30.631Z,4.02
2019-03-19T00:45:30.629Z,4.02
2019-03-19T00:46:30.602Z,4.01
2019-03-19T00:47:30.601Z,4.00
2019-03-19T00:48:30.584Z,4.00
2019-03-19T00:49:30.572Z,4.00
2019-03-19T00:50:30.564Z,3.99
2019-03-19T00:51:30.563Z,3.98
2019-03-19T00:52:30.541Z,3.98
2019-03-19T00:53:30.534Z,3.98
2019-03-19T00:54:30.518Z,3.96
2019-03-19T00:55:40.279Z,3.97
2019-03-19T00:56:31.508Z,3.96
2019-03-19T00:57:30.487Z,3.95
2019-03-19T00:58:30.478Z,3.96
2019-03-19T00:59:30.467Z,3.93
2019-03-19T01:00:30.465Z,3.94
2019-03-19T01:01:30.445Z,3.94
2019-03-19T01:02:30.451Z,3.94
2019-03-19T01:03:30.426Z,3.93
2019-03-19T01:04:30.417Z,3.92
2019-03-19T01:05:30.412Z,3.92
2019-03-19T01:06:30.399Z,3.92
2019-03-19T01:07:30.385Z,3.93
2019-03-19T01:08:30.385Z,3.92
2019-03-19T01:09:30.365Z,3.93
2019-03-19T01:10:30.358Z,3.92
2019-03-19T01:11:30.344Z,3.93
2019-03-19T01:12:30.334Z,3.92
2019-03-19T01:13:30.328Z,3.93
2019-03-19T01:14:30.321Z,3.92
2019-03-19T01:15:30.301Z,3.91
2019-03-19T01:16:30.292Z,3.92
2019-03-19T01:17:30.282Z,3.92
2019-03-19T01:18:30.271Z,3.92
2019-03-19T01:19:30.260Z,3.91
2019-03-19T01:20:30.260Z,3.91
2019-03-19T01:21:30.241Z,3.92
2019-03-19T01:22:30.229Z,3.91
2019-03-19T01:23:30.235Z,3.90
2019-03-19T01:24:30.208Z,3.91
2019-03-19T01:25:30.207Z,3.91
2019-03-19T01:26:30.200Z,3.91
2019-03-19T01:27:30.177Z,3.91
2019-03-19T01:28:30.167Z,3.90
2019-03-19T01:29:30.156Z,3.90
2019-03-19T01:30:30.146Z,3.88
2019-03-19T01:31:30.138Z,3.88
2019-03-19T01:32:30.136Z,3.88
2019-03-19T01:33:30.115Z,3.88
2019-03-19T01:34:30.105Z,3.88
2019-03-19T01:35:30.095Z,3.87
2019-03-19T01:36:30.083Z,3.86
2019-03-19T01:37:30.075Z,3.85
2019-03-19T01:38:30.075Z,3.83
2019-03-19T01:39:30.052Z,3.82
2019-03-19T01:40:30.046Z,3.83
2019-03-19T01:41:30.031Z,3.82
2019-03-19T01:42:30.021Z,3.80
2019-03-19T01:43:30.014Z,3.80
2019-03-19T01:44:30.017Z,3.78
2019-03-19T01:45:29.990Z,3.78
2019-03-19T01:46:29.980Z,3.78
2019-03-19T01:47:29.976Z,3.77
2019-03-19T01:48:29.959Z,3.78
2019-03-19T01:49:29.949Z,3.77
2019-03-19T01:50:29.958Z,3.77
2019-03-19T01:51:29.929Z,3.76
2019-03-19T01:52:29.920Z,3.77
2019-03-19T01:53:29.907Z,3.76
2019-03-19T01:54:29.900Z,3.75
2019-03-19T01:55:29.888Z,3.75
2019-03-19T01:56:29.891Z,3.74
2019-03-19T01:57:29.867Z,3.74
2019-03-19T01:58:29.863Z,3.74
2019-03-19T01:59:29.863Z,3.72
2019-03-19T02:00:29.868Z,3.71
2019-03-19T02:01:29.843Z,3.70
2019-03-19T02:02:29.827Z,3.69
2019-03-19T02:03:29.807Z,3.68
2019-03-19T02:04:29.794Z,3.68
2019-03-19T02:05:29.783Z,3.67
2019-03-19T02:06:29.774Z,3.66
2019-03-19T02:07:29.765Z,3.66
2019-03-19T02:08:29.769Z,3.67
2019-03-19T02:09:29.747Z,3.66
2019-03-19T02:10:29.739Z,3.66
2019-03-19T02:11:29.721Z,3.65
2019-03-19T02:12:29.711Z,3.66
2019-03-19T02:13:29.704Z,3.66
2019-03-19T02:14:29.700Z,3.65
2019-03-19T02:15:29.679Z,3.63
2019-03-19T02:16:29.668Z,3.65
2019-03-19T02:17:29.659Z,3.64
2019-03-19T02:18:29.651Z,3.64
2019-03-19T02:19:29.638Z,3.64
2019-03-19T02:20:29.638Z,3.62
2019-03-19T02:21:29.617Z,3.63
2019-03-19T02:22:29.606Z,3.63
2019-03-19T02:23:29.596Z,3.63
2019-03-19T02:24:29.600Z,3.64
2019-03-19T02:25:29.575Z,3.62
2019-03-19T02:26:29.578Z,3.64
2019-03-19T02:27:29.568Z,3.62
2019-03-19T02:28:29.544Z,3.61
2019-03-19T02:29:29.535Z,3.63
2019-03-19T02:30:29.620Z,3.61
2019-03-19T02:31:29.512Z,3.61
2019-03-19T02:32:29.512Z,3.60
2019-03-19T02:33:29.493Z,3.60
2019-03-19T02:34:29.485Z,3.59
2019-03-19T02:35:29.471Z,3.58
2019-03-19T02:36:29.489Z,3.57
2019-03-19T02:37:29.461Z,3.56
2019-03-19T02:38:29.457Z,3.56
2019-03-19T02:39:29.433Z,3.55
2019-03-19T02:40:29.421Z,3.55
2019-03-19T02:41:29.411Z,3.54
2019-03-19T02:42:29.410Z,3.54
2019-03-19T02:43:29.398Z,3.52
2019-03-19T02:44:29.395Z,3.52
2019-03-19T02:45:29.370Z,3.50
2019-03-19T02:46:29.362Z,3.49
2019-03-19T02:47:29.348Z,3.49
2019-03-19T02:48:29.336Z,3.47
2019-03-19T02:49:29.332Z,3.46
2019-03-19T02:50:29.327Z,3.46
2019-03-19T02:51:29.309Z,3.45
2019-03-19T02:52:29.295Z,3.45
2019-03-19T02:53:29.699Z,3.45
2019-03-19T02:54:29.279Z,3.46
2019-03-19T02:55:29.264Z,3.46
2019-03-19T02:56:33.305Z,3.45
2019-03-19T02:57:29.242Z,3.45
2019-03-19T02:58:29.236Z,3.45
2019-03-19T02:59:29.223Z,3.44
2019-03-19T03:00:29.220Z,3.44
2019-03-19T03:01:29.204Z,3.42
2019-03-19T03:02:29.201Z,3.42
2019-03-19T03:03:29.185Z,3.42
2019-03-19T03:04:29.173Z,3.41
2019-03-19T03:05:29.159Z,3.40
2019-03-19T03:06:29.157Z,3.41
2019-03-19T03:07:29.139Z,3.41
2019-03-19T03:08:29.140Z,3.41
2019-03-19T03:09:29.118Z,3.40
2019-03-19T03:10:29.114Z,3.40
2019-03-19T03:11:29.101Z,3.39
2019-03-19T03:12:29.086Z,3.40
2019-03-19T03:13:29.076Z,3.39
2019-03-19T03:14:29.078Z,3.40
2019-03-19T03:15:29.071Z,3.40
2019-03-19T03:16:29.050Z,3.39
2019-03-19T03:17:29.039Z,3.41
2019-03-19T03:18:29.025Z,3.41
2019-03-19T03:19:29.013Z,3.40
2019-03-19T03:20:29.013Z,3.39
2019-03-19T03:21:28.992Z,3.40
2019-03-19T03:22:28.984Z,3.40
2019-03-19T03:23:28.973Z,3.39
2019-03-19T03:24:28.962Z,3.38
2019-03-19T03:25:28.953Z,3.38
2019-03-19T03:26:28.951Z,3.39
2019-03-19T03:27:28.934Z,3.40
2019-03-19T03:28:28.919Z,3.40
2019-03-19T03:29:28.921Z,3.40
2019-03-19T03:30:28.920Z,3.40
2019-03-19T03:31:28.889Z,3.40
2019-03-19T03:32:28.888Z,3.40
2019-03-19T03:33:28.869Z,3.39
2019-03-19T03:34:28.858Z,3.40
2019-03-19T03:35:28.846Z,3.40
2019-03-19T03:36:28.846Z,3.40
2019-03-19T03:37:28.829Z,3.38
2019-03-19T03:38:28.831Z,3.38
2019-03-19T03:39:28.820Z,3.38
2019-03-19T03:40:28.794Z,3.40
2019-03-19T03:41:28.785Z,3.40
2019-03-19T03:42:28.775Z,3.40
2019-03-19T03:43:28.764Z,3.41
2019-03-19T03:44:28.771Z,3.40
2019-03-19T03:45:28.747Z,3.40
2019-03-19T03:46:28.735Z,3.40
2019-03-19T03:47:28.723Z,3.40
2019-03-19T03:48:28.712Z,3.40
2019-03-19T03:49:28.703Z,3.40
2019-03-19T03:50:28.701Z,3.40
2019-03-19T03:51:28.695Z,3.39
2019-03-19T03:52:28.670Z,3.40
2019-03-19T03:53:28.678Z,3.38
2019-03-19T03:54:28.685Z,3.40
2019-03-19T03:55:31.091Z,3.39
2019-03-19T03:56:28.640Z,3.38
2019-03-19T03:57:28.618Z,3.38
2019-03-19T03:58:28.609Z,3.39
2019-03-19T03:59:28.598Z,3.38
2019-03-19T04:00:28.659Z,3.38
2019-03-19T04:01:28.578Z,3.37
2019-03-19T04:02:28.583Z,3.36
2019-03-19T04:03:28.575Z,3.36
2019-03-19T04:04:28.545Z,3.36
2019-03-19T04:05:28.534Z,3.36
2019-03-19T04:06:28.524Z,3.36
2019-03-19T04:07:28.514Z,3.34
2019-03-19T04:08:28.524Z,3.34
2019-03-19T04:09:28.492Z,3.35
2019-03-19T04:10:28.482Z,3.33
2019-03-19T04:11:28.476Z,3.33
2019-03-19T04:12:28.462Z,3.33
2019-03-19T04:13:28.452Z,3.32
2019-03-19T04:14:28.451Z,3.31
2019-03-19T04:15:28.431Z,3.31
2019-03-19T04:16:28.518Z,3.30
2019-03-19T04:17:28.413Z,3.30
2019-03-19T04:18:28.399Z,3.29
2019-03-19T04:19:28.389Z,3.28
2019-03-19T04:20:28.397Z,3.28
2019-03-19T04:21:28.370Z,3.27
2019-03-19T04:22:28.357Z,3.27
2019-03-19T04:23:28.347Z,3.26
2019-03-19T04:24:28.337Z,3.23
2019-03-19T04:25:28.327Z,3.22
2019-03-19T04:26:28.370Z,3.21
2019-03-19T04:27:28.304Z,3.20
2019-03-19T04:28:28.294Z,3.18
2019-03-19T04:29:28.292Z,3.16
2019-03-19T04:30:28.278Z,3.14
2019-03-19T04:31:28.264Z,3.13
2019-03-19T04:32:28.262Z,3.12
2019-03-19T04:33:28.239Z,3.11
2019-03-19T04:34:28.229Z,3.10
2019-03-19T04:35:28.224Z,3.08
2019-03-19T04:36:28.210Z,3.07
2019-03-19T04:37:28.227Z,3.09
2019-03-19T04:38:28.197Z,3.07
2019-03-19T04:39:28.176Z,3.07
2019-03-19T04:40:28.166Z,3.05
2019-03-19T04:41:28.155Z,3.05
2019-03-19T04:42:28.143Z,3.04
2019-03-19T04:43:28.133Z,3.04
2019-03-19T04:44:28.142Z,3.04
2019-03-19T04:45:28.111Z,3.02
2019-03-19T04:46:28.147Z,3.00
2019-03-19T04:47:28.091Z,3.01
2019-03-19T04:48:28.079Z,2.97
2019-03-19T04:49:28.076Z,2.96
2019-03-19T04:50:28.068Z,2.95
2019-03-19T04:51:28.050Z,2.95
2019-03-19T04:52:28.036Z,2.94
2019-03-19T04:53:28.041Z,2.92
2019-03-19T04:54:28.015Z,2.92
2019-03-19T04:55:28.004Z,2.90
2019-03-19T04:56:28.010Z,2.89
2019-03-19T04:57:27.989Z,2.89
2019-03-19T04:58:27.975Z,2.88
2019-03-19T04:59:27.961Z,2.87
2019-03-19T05:00:27.950Z,2.87
2019-03-19T05:01:27.940Z,2.86
2019-03-19T05:02:27.939Z,2.87
2019-03-19T05:03:27.918Z,2.87
2019-03-19T05:04:27.907Z,2.86
2019-03-19T05:05:27.897Z,2.85
2019-03-19T05:06:27.887Z,2.85
2019-03-19T05:07:27.880Z,2.84
2019-03-19T05:08:27.878Z,2.84
2019-03-19T05:09:27.864Z,2.82
2019-03-19T05:10:27.845Z,2.81
2019-03-19T05:11:27.833Z,2.80
2019-03-19T05:12:27.822Z,2.80
2019-03-19T05:13:27.811Z,2.75
2019-03-19T05:14:27.811Z,2.74
2019-03-19T05:15:27.792Z,2.74
2019-03-19T05:16:27.782Z,2.71
2019-03-19T05:17:27.770Z,2.70
2019-03-19T05:18:27.758Z,2.69
2019-03-19T05:19:27.748Z,2.68
2019-03-19T05:20:27.749Z,2.69
2019-03-19T05:21:27.726Z,2.69
2019-03-19T05:22:27.716Z,2.68
2019-03-19T05:23:27.705Z,2.69
2019-03-19T05:24:27.696Z,2.68
2019-03-19T05:25:27.689Z,2.68
2019-03-19T05:26:27.743Z,2.69
2019-03-19T05:27:37.078Z,2.69
2019-03-19T05:28:28.652Z,2.68
2019-03-19T05:29:27.642Z,2.67
2019-03-19T05:30:27.632Z,2.68
2019-03-19T05:31:27.620Z,2.67
2019-03-19T05:32:27.622Z,2.67
2019-03-19T05:33:27.600Z,2.67
2019-03-19T05:34:27.588Z,2.67
2019-03-19T05:35:27.586Z,2.66
2019-03-19T05:36:27.569Z,2.67
2019-03-19T05:37:27.556Z,2.67
2019-03-19T05:38:27.560Z,2.66
2019-03-19T05:39:27.536Z,2.67
2019-03-19T05:40:27.525Z,2.69
2019-03-19T05:41:27.516Z,2.71
2019-03-19T05:42:27.505Z,2.72
2019-03-19T05:43:27.494Z,2.74
2019-03-19T05:44:27.495Z,2.74
2019-03-19T05:45:27.472Z,2.75
2019-03-19T05:46:27.462Z,2.79
2019-03-19T05:47:36.835Z,2.81
2019-03-19T05:48:28.439Z,2.84
2019-03-19T05:49:27.431Z,2.85
2019-03-19T05:50:27.430Z,2.88
2019-03-19T05:51:27.409Z,2.91
2019-03-19T05:52:27.398Z,2.93
2019-03-19T05:53:27.388Z,2.96
2019-03-19T05:54:27.376Z,2.98
2019-03-19T05:55:27.366Z,3.02
2019-03-19T05:56:27.372Z,3.07
2019-03-19T05:57:27.345Z,3.10
2019-03-19T05:58:27.338Z,3.14
2019-03-19T05:59:27.325Z,3.18
2019-03-19T06:00:27.313Z,3.22
2019-03-19T06:01:27.302Z,3.28
2019-03-19T06:02:27.304Z,3.34
2019-03-19T06:03:27.281Z,3.39
2019-03-19T06:04:27.272Z,3.46
2019-03-19T06:05:27.260Z,3.51
2019-03-19T06:06:27.248Z,3.57
2019-03-19T06:07:27.255Z,3.65
2019-03-19T06:08:27.239Z,3.71
2019-03-19T06:09:27.217Z,3.80
2019-03-19T06:10:27.206Z,3.86
2019-03-19T06:11:27.200Z,3.93
2019-03-19T06:12:27.195Z,4.02
2019-03-19T06:13:27.175Z,4.10
2019-03-19T06:14:27.225Z,4.17
2019-03-19T06:15:27.155Z,4.25
2019-03-19T06:16:27.145Z,4.35
2019-03-19T06:17:27.149Z,4.44
2019-03-19T06:18:35.098Z,4.55
2019-03-19T06:19:28.123Z,4.65
2019-03-19T06:20:27.105Z,4.76
2019-03-19T06:21:27.092Z,4.86
2019-03-19T06:22:27.082Z,4.98
2019-03-19T06:23:27.070Z,5.11
2019-03-19T06:24:27.060Z,5.25
2019-03-19T06:25:27.097Z,5.42
2019-03-19T06:26:27.041Z,5.63
2019-03-19T06:27:27.028Z,5.89
2019-03-19T06:28:27.018Z,6.12
2019-03-19T06:29:27.007Z,6.30
2019-03-19T06:30:26.996Z,6.48
2019-03-19T06:31:26.995Z,6.64
2019-03-19T06:32:26.974Z,6.87
2019-03-19T06:33:26.963Z,7.11
2019-03-19T06:34:26.957Z,7.31
2019-03-19T06:35:26.944Z,7.52
2019-03-19T06:36:26.935Z,7.88
2019-03-19T06:37:26.931Z,8.24
2019-03-19T06:38:26.911Z,8.67
2019-03-19T06:39:26.901Z,9.10
2019-03-19T06:40:26.889Z,9.53
2019-03-19T06:41:26.879Z,9.89
2019-03-19T06:42:26.867Z,10.30
2019-03-19T06:43:26.869Z,10.71
2019-03-19T06:44:26.846Z,11.05
2019-03-19T06:45:26.836Z,11.37
2019-03-19T06:46:26.826Z,11.80
2019-03-19T06:47:26.815Z,12.18
2019-03-19T06:48:26.815Z,12.40
2019-03-19T06:49:26.807Z,12.48
2019-03-19T06:50:28.110Z,12.65
2019-03-19T06:51:26.771Z,12.96
2019-03-19T06:52:26.760Z,13.34
2019-03-19T06:53:26.751Z,13.73
2019-03-19T06:54:26.746Z,14.11
2019-03-19T06:55:26.742Z,14.48
2019-03-19T06:56:26.718Z,14.81
2019-03-19T06:57:26.706Z,15.17
2019-03-19T06:58:26.698Z,15.49
2019-03-19T06:59:26.686Z,15.82
2019-03-19T07:00:26.676Z,16.12
2019-03-19T07:01:26.674Z,16.44
2019-03-19T07:02:26.657Z,16.76
2019-03-19T07:03:26.648Z,17.07
2019-03-19T07:04:26.634Z,17.36
2019-03-19T07:05:26.621Z,17.66
2019-03-19T07:06:26.611Z,17.92
2019-03-19T07:07:26.610Z,18.20
2019-03-19T07:08:26.637Z,18.47
2019-03-19T07:09:26.587Z,18.69
2019-03-19T07:10:26.567Z,18.90
2019-03-19T07:11:26.559Z,19.13
2019-03-19T07:12:26.546Z,19.33
2019-03-19T07:13:26.546Z,19.56
2019-03-19T07:14:26.524Z,19.80
2019-03-19T07:15:26.512Z,20.03
2019-03-19T07:16:26.502Z,20.24
2019-03-19T07:17:26.492Z,20.46
2019-03-19T07:18:26.483Z,20.69
2019-03-19T07:19:26.482Z,20.89
2019-03-19T07:20:26.466Z,21.10
2019-03-19T07:21:26.454Z,21.28
2019-03-19T07:22:26.437Z,21.48
2019-03-19T07:23:26.426Z,21.67
2019-03-19T07:24:26.421Z,21.83
2019-03-19T07:25:26.421Z,21.97
2019-03-19T07:26:26.396Z,22.14
2019-03-19T07:27:26.382Z,22.33
2019-03-19T07:28:26.373Z,22.52
2019-03-19T07:29:26.361Z,22.72
2019-03-19T07:30:26.353Z,22.88
2019-03-19T07:31:30.835Z,23.08
2019-03-19T07:32:26.328Z,23.29
2019-03-19T07:33:26.318Z,23.50
2019-03-19T07:34:26.310Z,23.67
2019-03-19T07:35:26.297Z,23.78
2019-03-19T07:36:26.284Z,23.90
2019-03-19T07:37:26.284Z,24.03
2019-03-19T07:38:26.262Z,24.18
2019-03-19T07:39:26.252Z,24.34
2019-03-19T07:40:26.248Z,24.50
2019-03-19T07:41:26.233Z,24.66
2019-03-19T07:42:26.219Z,24.82
2019-03-19T07:43:26.232Z,25.00
2019-03-19T07:44:26.198Z,25.19
2019-03-19T07:45:26.193Z,25.39
2019-03-19T07:46:26.174Z,25.55
2019-03-19T07:47:26.167Z,25.69
2019-03-19T07:48:26.155Z,25.88
2019-03-19T07:49:26.152Z,26.04
2019-03-19T07:50:26.131Z,26.26
2019-03-19T07:51:26.120Z,26.42
2019-03-19T07:52:26.108Z,26.53
2019-03-19T07:53:26.099Z,26.66
2019-03-19T07:54:26.086Z,26.78
2019-03-19T07:55:26.086Z,26.92
2019-03-19T07:56:26.068Z,27.01
2019-03-19T07:57:26.054Z,27.12
2019-03-19T07:58:35.724Z,27.25
2019-03-19T07:59:27.032Z,27.38
2019-03-19T08:00:26.021Z,27.51
2019-03-19T08:01:26.022Z,27.58
2019-03-19T08:02:26.001Z,27.65
2019-03-19T08:03:25.988Z,27.76
2019-03-19T08:04:25.981Z,27.85
2019-03-19T08:05:33.102Z,27.97
2019-03-19T08:06:26.968Z,28.08
2019-03-19T08:07:25.944Z,28.16
2019-03-19T08:08:25.933Z,28.23
2019-03-19T08:09:25.974Z,28.26
2019-03-19T08:10:25.915Z,28.30
2019-03-19T08:11:25.909Z,28.37
2019-03-19T08:12:25.901Z,28.47
2019-03-19T08:13:25.884Z,28.60
2019-03-19T08:14:25.867Z,28.71
2019-03-19T08:15:25.859Z,28.86
2019-03-19T08:16:27.617Z,29.00
2019-03-19T08:17:25.837Z,29.14
2019-03-19T08:18:25.877Z,29.28
2019-03-19T08:19:25.819Z,29.43
2019-03-19T08:20:25.802Z,29.51
2019-03-19T08:21:25.793Z,29.58
2019-03-19T08:22:25.780Z,29.62
2019-03-19T08:23:25.771Z,29.66
2019-03-19T08:24:25.776Z,29.69
2019-03-19T08:25:25.748Z,29.74
2019-03-19T08:26:25.736Z,29.81
2019-03-19T08:27:25.725Z,29.89
2019-03-19T08:28:25.714Z,29.95
2019-03-19T08:29:25.704Z,29.97
2019-03-19T08:30:25.705Z,29.98
2019-03-19T08:31:25.681Z,29.99
2019-03-19T08:32:25.671Z,30.00
2019-03-19T08:33:25.660Z,30.00
2019-03-19T08:34:25.653Z,30.02
2019-03-19T08:35:25.639Z,30.07
2019-03-19T08:36:25.638Z,30.17
2019-03-19T08:37:25.619Z,30.26
2019-03-19T08:38:26.534Z,30.33
2019-03-19T08:39:25.623Z,30.47
2019-03-19T08:40:25.585Z,30.60
2019-03-19T08:41:25.574Z,30.76
2019-03-19T08:42:25.574Z,30.88
2019-03-19T08:43:25.568Z,30.98
2019-03-19T08:44:27.970Z,31.11
2019-03-19T08:45:25.531Z,31.24
2019-03-19T08:46:25.524Z,31.36
2019-03-19T08:47:25.511Z,31.46
2019-03-19T08:48:25.516Z,31.56
2019-03-19T08:49:25.489Z,31.65
2019-03-19T08:50:25.480Z,31.74
2019-03-19T08:51:25.466Z,31.79
2019-03-19T08:52:25.456Z,31.82
2019-03-19T08:53:25.445Z,31.78
2019-03-19T08:54:25.459Z,31.79
2019-03-19T08:55:25.461Z,31.81
2019-03-19T08:56:25.413Z,31.81
2019-03-19T08:57:25.402Z,31.80
2019-03-19T08:58:25.391Z,31.80
2019-03-19T08:59:25.403Z,31.83
2019-03-19T09:00:25.382Z,31.80
2019-03-19T09:01:25.359Z,31.78
2019-03-19T09:02:25.347Z,31.73
2019-03-19T09:03:25.338Z,31.65
2019-03-19T09:04:25.326Z,31.59
2019-03-19T09:05:25.317Z,31.51
2019-03-19T09:06:25.315Z,31.42
2019-03-19T09:07:25.293Z,31.34
2019-03-19T09:08:25.285Z,31.23
2019-03-19T09:09:25.273Z,31.12
2019-03-19T09:10:25.260Z,31.01
2019-03-19T09:11:25.250Z,30.88
2019-03-19T09:12:25.251Z,30.72
2019-03-19T09:13:25.228Z,30.53
2019-03-19T09:14:25.217Z,30.37
2019-03-19T09:15:25.212Z,30.25
2019-03-19T09:16:25.196Z,30.21
2019-03-19T09:17:25.186Z,30.17
2019-03-19T09:18:25.184Z,30.10
2019-03-19T09:19:25.163Z,29.67
2019-03-19T09:20:25.154Z,29.42
2019-03-19T09:21:25.142Z,29.28
2019-03-19T09:22:29.607Z,27.68
2019-03-19T09:23:25.120Z,27.91
2019-03-19T09:24:25.126Z,27.05
2019-03-19T09:25:25.099Z,25.99
2019-03-19T09:26:25.089Z,24.82
2019-03-19T09:27:25.077Z,24.45
2019-03-19T09:28:25.067Z,24.00
2019-03-19T09:29:25.523Z,23.46
2019-03-19T09:30:25.055Z,24.28
2019-03-19T09:31:25.034Z,24.87
2019-03-19T09:32:25.023Z,25.33
2019-03-19T09:33:25.037Z,25.70
2019-03-19T09:34:25.007Z,26.07
2019-03-19T09:35:26.312Z,26.34
2019-03-19T09:36:25.009Z,25.65
2019-03-19T09:37:24.967Z,25.08
2019-03-19T09:38:24.958Z,25.41
2019-03-19T09:39:24.959Z,25.19
2019-03-19T09:40:24.934Z,24.33
2019-03-19T09:41:24.923Z,24.38
2019-03-19T09:42:24.934Z,24.59
2019-03-19T09:43:24.901Z,24.74
2019-03-19T09:44:24.890Z,24.88
2019-03-19T09:45:24.880Z,25.07
2019-03-19T09:46:24.868Z,25.22
2019-03-19T09:47:24.859Z,25.36
2019-03-19T09:48:24.859Z,25.56
2019-03-19T09:49:24.883Z,25.80
2019-03-19T09:50:24.830Z,26.05
2019-03-19T09:51:24.812Z,26.25
2019-03-19T09:52:24.801Z,26.18
2019-03-19T09:53:24.791Z,25.56
2019-03-19T09:54:24.790Z,24.82
2019-03-19T09:55:24.774Z,24.04
2019-03-19T09:56:24.760Z,23.30
2019-03-19T09:57:24.747Z,22.58
2019-03-19T09:58:24.740Z,21.95
2019-03-19T09:59:27.309Z,21.38
2019-03-19T10:00:24.724Z,20.84
2019-03-19T10:01:24.703Z,20.35
2019-03-19T10:02:24.693Z,19.90
2019-03-19T10:03:24.681Z,19.46
2019-03-19T10:04:24.671Z,19.05
2019-03-19T10:05:24.660Z,18.70
2019-03-19T10:06:24.659Z,18.39
2019-03-19T10:07:24.638Z,18.09
2019-03-19T10:08:24.630Z,17.86
2019-03-19T10:09:24.617Z,18.13
2019-03-19T10:10:24.648Z,18.72
2019-03-19T10:11:24.595Z,19.17
2019-03-19T10:12:24.597Z,19.71
2019-03-19T10:13:24.573Z,20.32
2019-03-19T10:14:24.563Z,20.88
2019-03-19T10:15:24.555Z,21.39
2019-03-19T10:16:24.544Z,21.75
2019-03-19T10:17:24.536Z,21.95
2019-03-19T10:18:24.529Z,22.39
2019-03-19T10:19:24.507Z,22.87
2019-03-19T10:20:24.497Z,23.18
2019-03-19T10:21:24.487Z,22.96
2019-03-19T10:22:24.483Z,22.72
2019-03-19T10:23:24.464Z,22.42
2019-03-19T10:24:24.464Z,22.21
2019-03-19T10:25:24.443Z,21.95
2019-03-19T10:26:24.436Z,21.76
2019-03-19T10:27:24.422Z,21.56
2019-03-19T10:28:24.409Z,21.32
2019-03-19T10:29:24.399Z,21.11
2019-03-19T10:30:24.412Z,20.85
2019-03-19T10:31:24.377Z,20.57
2019-03-19T10:32:24.365Z,20.25
2019-03-19T10:33:24.357Z,19.93
2019-03-19T10:34:24.346Z,19.69
2019-03-19T10:35:24.333Z,19.72
2019-03-19T10:36:24.334Z,19.98
2019-03-19T10:37:24.313Z,19.67
2019-03-19T10:38:24.303Z,19.56
2019-03-19T10:39:24.290Z,19.54
2019-03-19T10:40:24.283Z,19.37
2019-03-19T10:41:24.269Z,19.19
2019-03-19T10:42:24.271Z,19.01
2019-03-19T10:43:24.250Z,18.87
2019-03-19T10:44:24.237Z,18.73
2019-03-19T10:45:24.230Z,18.70
2019-03-19T10:46:24.214Z,18.64
2019-03-19T10:47:24.204Z,18.56
2019-03-19T10:48:24.211Z,18.52
2019-03-19T10:49:24.183Z,18.49
2019-03-19T10:50:24.175Z,18.41
2019-03-19T10:51:24.160Z,18.29
2019-03-19T10:52:24.148Z,18.16
2019-03-19T10:53:24.137Z,18.08
2019-03-19T10:54:24.140Z,17.99
2019-03-19T10:55:24.115Z,17.89
2019-03-19T10:56:24.103Z,17.76
2019-03-19T10:57:24.093Z,17.65
2019-03-19T10:58:24.083Z,17.63
2019-03-19T10:59:24.071Z,17.56
2019-03-19T11:00:24.069Z,17.54
2019-03-19T11:01:24.048Z,17.52
2019-03-19T11:02:24.037Z,17.51
2019-03-19T11:03:24.026Z,17.48
2019-03-19T11:04:24.015Z,17.38
2019-03-19T11:05:24.004Z,17.29
2019-03-19T11:06:24.008Z,17.20
2019-03-19T11:07:23.983Z,17.17
2019-03-19T11:08:23.974Z,17.07
2019-03-19T11:09:23.963Z,16.95
2019-03-19T11:10:23.952Z,16.82
2019-03-19T11:11:23.941Z,16.68
2019-03-19T11:12:23.940Z,16.55
2019-03-19T11:13:23.918Z,16.42
2019-03-19T11:14:23.908Z,16.27
2019-03-19T11:15:23.900Z,16.15
2019-03-19T11:16:23.890Z,16.04
2019-03-19T11:17:23.875Z,15.95
2019-03-19T11:18:23.888Z,15.83
2019-03-19T11:19:23.855Z,15.68
2019-03-19T11:20:23.846Z,15.58
2019-03-19T11:21:23.833Z,15.52
2019-03-19T11:22:23.822Z,15.45
2019-03-19T11:23:23.810Z,15.38
2019-03-19T11:24:23.812Z,15.31
2019-03-19T11:25:23.791Z,15.24
2019-03-19T11:26:23.778Z,15.21
2019-03-19T11:27:23.783Z,15.22
2019-03-19T11:28:23.764Z,15.25
2019-03-19T11:29:23.744Z,15.27
2019-03-19T11:30:23.750Z,15.29
2019-03-19T11:31:23.722Z,15.35
2019-03-19T11:32:23.711Z,15.47
2019-03-19T11:33:23.701Z,15.50
2019-03-19T11:34:23.689Z,15.50
2019-03-19T11:35:23.678Z,15.49
2019-03-19T11:36:23.678Z,15.52
2019-03-19T11:37:23.657Z,15.56
2019-03-19T11:38:23.648Z,15.55
2019-03-19T11:39:23.635Z,15.57
2019-03-19T11:40:25.773Z,15.64
2019-03-19T11:41:23.614Z,15.67
2019-03-19T11:42:23.616Z,15.66
2019-03-19T11:43:23.599Z,15.67
2019-03-19T11:44:23.580Z,15.67
2019-03-19T11:45:23.570Z,15.79
2019-03-19T11:46:23.558Z,15.93
2019-03-19T11:47:23.548Z,16.03
2019-03-19T11:48:23.557Z,16.13
2019-03-19T11:49:23.526Z,16.24
2019-03-19T11:50:23.516Z,16.31
2019-03-19T11:51:23.503Z,16.32
2019-03-19T11:52:23.493Z,16.33
2019-03-19T11:53:23.482Z,16.36
2019-03-19T11:54:23.481Z,16.39
2019-03-19T11:55:23.463Z,16.43
2019-03-19T11:56:23.455Z,16.51
2019-03-19T11:57:23.441Z,16.61
2019-03-19T11:58:23.427Z,16.64
2019-03-19T11:59:23.417Z,16.67
2019-03-19T12:00:23.416Z,16.65
2019-03-19T12:01:23.396Z,16.68
2019-03-19T12:02:26.119Z,16.81
2019-03-19T12:03:23.374Z,16.94
2019-03-19T12:04:23.369Z,17.10
2019-03-19T12:05:23.353Z,17.20
2019-03-19T12:06:23.353Z,17.32
2019-03-19T12:07:23.331Z,17.43
2019-03-19T12:08:23.319Z,17.53
2019-03-19T12:09:23.308Z,17.59
2019-03-19T12:10:23.298Z,17.62
2019-03-19T12:11:23.287Z,17.68
2019-03-19T12:12:23.326Z,17.73
2019-03-19T12:13:23.264Z,17.77
2019-03-19T12:14:23.253Z,17.77
2019-03-19T12:15:23.242Z,17.77
2019-03-19T12:16:23.231Z,17.76
2019-03-19T12:17:23.220Z,17.77
2019-03-19T12:18:23.223Z,17.75
2019-03-19T12:19:23.198Z,17.79
2019-03-19T12:20:23.192Z,17.82
2019-03-19T12:21:23.177Z,17.84
2019-03-19T12:22:23.170Z,17.86
2019-03-19T12:23:23.175Z,17.85
2019-03-19T12:24:23.162Z,17.85
2019-03-19T12:25:23.131Z,17.80
2019-03-19T12:26:23.121Z,17.78
2019-03-19T12:27:23.112Z,17.70
2019-03-19T12:28:23.099Z,17.68
2019-03-19T12:29:23.089Z,17.63
2019-03-19T12:30:26.138Z,17.55
2019-03-19T12:31:23.066Z,17.46
2019-03-19T12:32:23.056Z,17.37
2019-03-19T12:33:23.059Z,17.27
2019-03-19T12:34:23.033Z,17.15
2019-03-19T12:35:23.026Z,17.07
2019-03-19T12:36:23.026Z,16.97
2019-03-19T12:37:23.012Z,16.88
2019-03-19T12:38:22.990Z,16.83
2019-03-19T12:39:22.979Z,16.78
2019-03-19T12:40:22.968Z,16.76
2019-03-19T12:41:22.957Z,16.74
2019-03-19T12:42:22.957Z,16.75
2019-03-19T12:43:22.936Z,16.77
2019-03-19T12:44:22.923Z,16.81
2019-03-19T12:45:22.913Z,16.86
2019-03-19T12:46:22.901Z,16.84
2019-03-19T12:47:22.890Z,16.81
2019-03-19T12:48:22.893Z,16.78
2019-03-19T12:49:22.868Z,16.68
2019-03-19T12:50:22.858Z,16.62
2019-03-19T12:51:22.846Z,16.58
2019-03-19T12:52:22.837Z,16.57
2019-03-19T12:53:22.824Z,16.57
2019-03-19T12:54:22.826Z,16.59
2019-03-19T12:55:22.804Z,16.61
2019-03-19T12:56:22.793Z,16.65
2019-03-19T12:57:22.782Z,16.73
2019-03-19T12:58:22.774Z,16.79
2019-03-19T12:59:22.760Z,16.85
2019-03-19T13:00:33.496Z,16.90
2019-03-19T13:01:23.876Z,16.90
2019-03-19T13:02:22.728Z,16.92
2019-03-19T13:03:22.717Z,16.99
2019-03-19T13:04:22.707Z,17.04
2019-03-19T13:05:22.872Z,17.05